Terminal Aerodrome Forecast
Issued by NWS Twin Cities, MN

Home | Current Version | Previous Version | Graphics & Text | Print | Product List | Glossary On
Versions: 1 2 3 4 5 6 7 8 9 10 11 12 13 14 15 16 17 18 19 20 21 22 23 24
139
FTUS43 KMPX 191459 AAA
TAFMSP
TAF AMD
KMSP 191459Z 1915/2018 30006KT P6SM OVC025
     FM191700 34010KT P6SM SCT030
     FM192000 36007KT P6SM SCT050 SCT250
     FM200300 VRB03KT P6SM BKN250=

USA.gov is the U.S. government's official web portal to all federal, state and local government web resources and services.